YNHE weather

Newhaven Airport
Victoria, Australia

Public forecast

Using degrees Celsius for public forecast. Weather courtesy of forecast.io.

METAR (pilot weather report)

Closest report is Avalon Airport, 49.8 nm (92.2 km) NW. Retrieved 2019/03/22 16:00 UTC (6 minutes ago):

YMAV 221600Z AUTO 07009KT 9999 // NCD 21/18 Q1008 RF00.0/000.0

TAF (pilot weather forecast)

Forecast is more than 6 hours old.

Closest forecast is Avalon Airport, 49.8 nm (92.2 km) NW. Retrieved 2019/03/22 06:00 UTC (10 hours ago):

TAF YMAV 220530Z 2206/2306 12012KT CAVOK FM221000 06008KT CAVOK FM221900 02010KT 9999 -SHRA SCT100 FM230200 31014KT CAVOK FM230400 27015G26KT CAVOK